Time,TemperatureF,DewpointF,PressureIn,WindDirection,WindDirectionDegrees,WindSpeedMPH,WindSpeedGustMPH,Humidity,HourlyPrecipIn,Conditions,Clouds,dailyrainin,SoftwareType,DateUTC
2013-08-06 00:00:00,72.6,69.4,29.97,SSE,150,0.0,0.0,87,0.00,,,0.00,dv,2013-08-06 04:00:00,
2013-08-06 00:05:00,72.4,69.2,29.97,SSE,150,0.0,0.0,87,0.00,,,0.00,dv,2013-08-06 04:05:00,
2013-08-06 00:10:00,72.3,69.4,29.97,SSE,149,0.0,0.0,88,0.00,,,0.00,dv,2013-08-06 04:10:00,
2013-08-06 00:15:00,72.1,69.2,29.97,SSE,149,0.0,0.0,88,0.00,,,0.00,dv,2013-08-06 04:15:00,
2013-08-06 00:20:00,72.1,69.4,29.97,SSE,150,0.0,0.0,89,0.00,,,0.00,dv,2013-08-06 04:20:00,
2013-08-06 00:25:00,72.1,69.4,29.97,SSE,150,0.0,0.0,89,0.00,,,0.00,dv,2013-08-06 04:25:00,
2013-08-06 00:30:00,72.2,69.5,29.97,SSE,150,0.0,0.0,89,0.00,,,0.00,dv,2013-08-06 04:30:00,
2013-08-06 00:35:00,72.1,69.4,29.97,SSE,149,0.0,0.0,89,0.00,,,0.00,dv,2013-08-06 04:35:00,
2013-08-06 00:40:00,72.1,69.7,29.97,SSE,150,0.0,0.0,90,0.00,,,0.00,dv,2013-08-06 04:40:00,
2013-08-06 00:45:00,72.1,69.7,29.97,SSE,149,0.0,0.0,90,0.00,,,0.00,dv,2013-08-06 04:45:00,
2013-08-06 00:50:00,72.2,69.8,29.98,SSE,150,0.0,0.0,90,0.00,,,0.00,dv,2013-08-06 04:50:00,
2013-08-06 00:55:00,72.2,69.8,29.97,SSE,150,0.0,0.0,90,0.00,,,0.00,dv,2013-08-06 04:55:00,
2013-08-06 01:00:00,72.2,69.8,29.97,SSE,149,0.0,0.0,90,0.00,,,0.00,dv,2013-08-06 05:00:00,
2013-08-06 01:05:00,72.2,69.8,29.97,SSE,150,0.0,0.0,90,0.00,,,0.00,dv,2013-08-06 05:05:00,
2013-08-06 01:10:00,72.2,70.0,29.97,SSE,149,0.0,0.0,91,0.00,,,0.00,dv,2013-08-06 05:10:00,
2013-08-06 01:15:00,72.3,70.1,29.97,SSE,149,0.0,0.0,91,0.00,,,0.00,dv,2013-08-06 05:15:00,
2013-08-06 01:20:00,72.2,70.0,29.96,SSE,150,0.0,0.0,91,0.00,,,0.00,dv,2013-08-06 05:20:00,
2013-08-06 01:25:00,72.2,70.0,29.97,SSE,150,0.0,0.0,91,0.00,,,0.00,dv,2013-08-06 05:25:00,
2013-08-06 01:30:00,72.2,70.0,29.97,SSE,150,0.0,0.0,91,0.00,,,0.00,dv,2013-08-06 05:30:00,
2013-08-06 01:35:00,72.3,70.1,29.97,SSE,150,0.0,0.0,91,0.00,,,0.00,dv,2013-08-06 05:35:00,
2013-08-06 01:40:00,72.3,70.1,29.97,SSE,149,0.0,0.0,91,0.00,,,0.00,dv,2013-08-06 05:40:00,
2013-08-06 01:45:00,72.3,70.1,29.96,SSE,150,0.0,0.0,91,0.00,,,0.00,dv,2013-08-06 05:45:00,
2013-08-06 01:50:00,72.3,70.1,29.96,SSE,150,0.0,0.0,91,0.00,,,0.00,dv,2013-08-06 05:50:00,
2013-08-06 01:55:00,72.4,70.2,29.96,SSE,150,0.0,0.0,91,0.00,,,0.00,dv,2013-08-06 05:55:00,
2013-08-06 02:00:00,72.4,70.2,29.96,SSE,150,0.0,0.0,91,0.00,,,0.00,dv,2013-08-06 06:00:00,
2013-08-06 02:05:00,72.4,70.2,29.96,SSE,150,0.0,0.0,91,0.00,,,0.00,dv,2013-08-06 06:05:00,
2013-08-06 02:10:00,72.4,70.2,29.95,SSE,149,0.0,0.0,91,0.00,,,0.00,dv,2013-08-06 06:10:00,
2013-08-06 02:15:00,72.5,70.6,29.95,SSE,150,0.0,0.0,92,0.00,,,0.00,dv,2013-08-06 06:15:00,
2013-08-06 02:20:00,72.4,70.2,29.95,SSE,150,0.0,0.0,91,0.00,,,0.00,dv,2013-08-06 06:20:00,
2013-08-06 02:25:00,72.5,70.6,29.95,SSE,149,0.0,0.0,92,0.00,,,0.00,dv,2013-08-06 06:25:00,
2013-08-06 02:30:00,72.5,70.6,29.95,SSE,150,0.0,0.0,92,0.00,,,0.00,dv,2013-08-06 06:30:00,
2013-08-06 02:35:00,72.6,70.7,29.95,SSE,150,0.0,0.0,92,0.00,,,0.00,dv,2013-08-06 06:35:00,
2013-08-06 02:40:00,72.5,70.6,29.95,SSE,150,0.0,0.0,92,0.00,,,0.00,dv,2013-08-06 06:40:00,
2013-08-06 02:50:00,72.6,70.7,29.95,SSE,150,0.0,0.0,92,0.00,,,0.00,dv,2013-08-06 06:50:00,
2013-08-06 02:55:00,72.7,70.8,29.94,SSE,149,0.0,0.0,92,0.00,,,0.00,dv,2013-08-06 06:55:00,
2013-08-06 03:00:00,72.8,71.1,29.94,SSE,150,0.0,0.0,93,0.00,,,0.00,dv,2013-08-06 07:00:00,
2013-08-06 03:05:00,73.0,71.3,29.94,SSE,150,0.0,0.0,93,0.00,,,0.00,dv,2013-08-06 07:05:00,
2013-08-06 03:10:00,73.1,71.7,29.94,SSE,149,0.0,0.0,94,0.00,,,0.00,dv,2013-08-06 07:10:00,
2013-08-06 03:15:00,73.2,71.8,29.94,SSE,150,0.0,0.0,94,0.00,,,0.00,dv,2013-08-06 07:15:00,
2013-08-06 03:20:00,73.3,71.9,29.93,SSE,150,0.0,0.0,94,0.00,,,0.00,dv,2013-08-06 07:20:00,
2013-08-06 03:25:00,73.3,71.9,29.94,SSE,150,0.0,0.0,94,0.00,,,0.00,dv,2013-08-06 07:25:00,
2013-08-06 03:30:00,73.4,71.7,29.94,SSE,150,0.0,0.0,93,0.00,,,0.00,dv,2013-08-06 07:30:00,
2013-08-06 03:35:00,73.4,72.0,29.94,SSE,149,0.0,0.0,94,0.00,,,0.00,dv,2013-08-06 07:35:00,
2013-08-06 03:40:00,73.4,72.0,29.94,SSE,150,0.0,0.0,94,0.00,,,0.00,dv,2013-08-06 07:40:00,
2013-08-06 03:45:00,73.5,72.1,29.94,SSE,150,0.0,0.0,94,0.00,,,0.00,dv,2013-08-06 07:45:00,
2013-08-06 03:50:00,73.6,72.2,29.94,SSE,150,0.0,0.0,94,0.00,,,0.00,dv,2013-08-06 07:50:00,
2013-08-06 03:55:00,73.7,72.3,29.94,SSE,150,0.0,0.0,94,0.00,,,0.00,dv,2013-08-06 07:55:00,
2013-08-06 04:00:00,73.6,72.2,29.94,SSE,149,0.0,0.0,94,0.00,,,0.00,dv,2013-08-06 08:00:00,
2013-08-06 04:05:00,73.6,72.2,29.94,SSE,150,0.0,0.0,94,0.00,,,0.00,dv,2013-08-06 08:05:00,
2013-08-06 04:10:00,73.6,72.2,29.94,SSE,150,0.0,0.0,94,0.00,,,0.00,dv,2013-08-06 08:10:00,
2013-08-06 04:15:00,73.7,72.3,29.94,SSE,149,0.0,0.0,94,0.00,,,0.00,dv,2013-08-06 08:15:00,
2013-08-06 04:20:00,73.6,72.2,29.94,SSE,150,0.0,0.0,94,0.00,,,0.00,dv,2013-08-06 08:20:00,
2013-08-06 04:25:00,73.7,72.3,29.94,SSE,150,0.0,0.0,94,0.00,,,0.00,dv,2013-08-06 08:25:00,
2013-08-06 04:30:00,73.8,72.1,29.94,SSE,150,0.0,0.0,93,0.00,,,0.00,dv,2013-08-06 08:30:00,
2013-08-06 04:35:00,73.8,72.4,29.95,SSE,150,0.0,0.0,94,0.00,,,0.00,dv,2013-08-06 08:35:00,
2013-08-06 04:40:00,73.7,72.3,29.95,SSE,149,0.0,0.0,94,0.00,,,0.00,dv,2013-08-06 08:40:00,
2013-08-06 04:45:00,73.8,72.4,29.95,SSE,149,0.0,0.0,94,0.00,,,0.00,dv,2013-08-06 08:45:00,
2013-08-06 04:50:00,73.8,72.4,29.95,SSE,150,0.0,0.0,94,0.00,,,0.00,dv,2013-08-06 08:50:00,
2013-08-06 04:55:00,73.8,72.4,29.95,SSE,150,0.0,0.0,94,0.00,,,0.00,dv,2013-08-06 08:55:00,
2013-08-06 05:00:00,73.8,72.4,29.94,SSE,150,0.0,0.0,94,0.00,,,0.00,dv,2013-08-06 09:00:00,
2013-08-06 05:05:00,73.8,72.4,29.94,SSE,150,1.6,1.6,94,0.00,,,0.00,dv,2013-08-06 09:05:00,
2013-08-06 05:10:00,73.8,72.1,29.95,SSE,150,0.0,0.0,93,0.00,,,0.00,dv,2013-08-06 09:10:00,
2013-08-06 05:15:00,73.7,72.0,29.95,SSE,149,0.0,0.0,93,0.00,,,0.00,dv,2013-08-06 09:15:00,
2013-08-06 05:20:00,73.8,72.1,29.95,SSE,150,0.0,0.0,93,0.00,,,0.00,dv,2013-08-06 09:20:00,
2013-08-06 05:25:00,73.6,71.7,29.95,SSE,150,1.6,1.6,92,0.00,,,0.00,dv,2013-08-06 09:25:00,
2013-08-06 05:30:00,73.5,71.8,29.95,SSE,150,0.0,0.0,93,0.00,,,0.00,dv,2013-08-06 09:30:00,
2013-08-06 05:35:00,73.4,71.5,29.95,South,170,1.6,1.6,92,0.00,,,0.00,dv,2013-08-06 09:35:00,
2013-08-06 05:40:00,73.4,71.5,29.95,South,170,0.0,0.0,92,0.00,,,0.00,dv,2013-08-06 09:40:00,
2013-08-06 05:45:00,73.2,71.0,29.95,South,170,0.0,0.0,91,0.00,,,0.00,dv,2013-08-06 09:45:00,
2013-08-06 05:50:00,73.1,71.2,29.95,South,170,0.0,0.0,92,0.00,,,0.00,dv,2013-08-06 09:50:00,
2013-08-06 05:55:00,73.0,70.8,29.95,South,170,0.0,0.0,91,0.00,,,0.00,dv,2013-08-06 09:55:00,
2013-08-06 06:00:00,73.0,70.8,29.95,South,170,0.0,0.0,91,0.00,,,0.00,dv,2013-08-06 10:00:00,
2013-08-06 06:05:00,72.9,70.7,29.95,South,170,0.0,0.0,91,0.00,,,0.00,dv,2013-08-06 10:05:00,
2013-08-06 06:10:00,72.9,71.0,29.95,South,170,1.6,1.6,92,0.00,,,0.00,dv,2013-08-06 10:10:00,
2013-08-06 06:15:00,73.0,71.1,29.95,South,170,0.0,0.0,92,0.00,,,0.00,dv,2013-08-06 10:15:00,
2013-08-06 06:20:00,73.0,71.1,29.95,South,170,0.0,0.0,92,0.00,,,0.00,dv,2013-08-06 10:20:00,
2013-08-06 06:25:00,73.0,71.1,29.95,West,260,1.6,1.6,92,0.00,,,0.00,dv,2013-08-06 10:25:00,
2013-08-06 06:30:00,73.1,71.2,29.95,West,260,0.0,0.0,92,0.00,,,0.00,dv,2013-08-06 10:30:00,
2013-08-06 06:35:00,73.1,71.2,29.95,West,267,1.6,1.6,92,0.00,,,0.00,dv,2013-08-06 10:35:00,
2013-08-06 06:40:00,73.1,71.2,29.95,West,268,0.0,0.0,92,0.00,,,0.00,dv,2013-08-06 10:40:00,
2013-08-06 06:45:00,73.1,71.2,29.95,West,268,0.0,0.0,92,0.00,,,0.00,dv,2013-08-06 10:45:00,
2013-08-06 06:50:00,73.0,71.1,29.95,West,267,0.0,0.0,92,0.00,,,0.00,dv,2013-08-06 10:50:00,
2013-08-06 06:55:00,73.1,71.2,29.96,West,267,0.0,0.0,92,0.00,,,0.00,dv,2013-08-06 10:55:00,
2013-08-06 07:00:00,73.0,71.1,29.96,West,267,0.0,0.0,92,0.00,,,0.00,dv,2013-08-06 11:00:00,
2013-08-06 07:05:00,72.9,71.0,29.96,West,268,0.0,0.0,92,0.00,,,0.00,dv,2013-08-06 11:05:00,
2013-08-06 07:10:00,72.9,71.0,29.96,West,267,0.0,0.0,92,0.00,,,0.00,dv,2013-08-06 11:10:00,
2013-08-06 07:15:00,72.8,70.9,29.96,West,268,0.0,0.0,92,0.00,,,0.00,dv,2013-08-06 11:15:00,
2013-08-06 07:20:00,72.8,70.9,29.97,West,267,0.0,0.0,92,0.00,,,0.00,dv,2013-08-06 11:20:00,
2013-08-06 07:25:00,72.8,70.9,29.96,West,268,0.0,0.0,92,0.00,,,0.00,dv,2013-08-06 11:25:00,
2013-08-06 07:30:00,72.7,70.8,29.96,West,267,0.0,0.0,92,0.00,,,0.00,dv,2013-08-06 11:30:00,
2013-08-06 07:35:00,72.7,70.8,29.97,West,268,0.0,0.0,92,0.00,,,0.00,dv,2013-08-06 11:35:00,
2013-08-06 07:40:00,72.6,70.7,29.97,West,267,0.0,0.0,92,0.00,,,0.00,dv,2013-08-06 11:40:00,
2013-08-06 07:45:00,72.6,70.7,29.97,West,268,0.0,0.0,92,0.00,,,0.00,dv,2013-08-06 11:45:00,
2013-08-06 07:50:00,72.6,70.7,29.97,West,267,0.0,0.0,92,0.00,,,0.00,dv,2013-08-06 11:50:00,
2013-08-06 07:55:00,72.7,70.8,29.98,West,268,0.0,0.0,92,0.00,,,0.00,dv,2013-08-06 11:55:00,
2013-08-06 08:00:00,72.6,70.7,29.98,West,268,0.0,0.0,92,0.00,,,0.00,dv,2013-08-06 12:00:00,
2013-08-06 08:10:00,72.6,70.7,29.99,West,267,0.0,0.0,92,0.00,,,0.00,dv,2013-08-06 12:10:00,
2013-08-06 08:15:00,72.6,70.7,29.99,West,268,0.0,0.0,92,0.00,,,0.00,dv,2013-08-06 12:15:00,
2013-08-06 08:20:00,72.6,70.4,29.98,West,267,0.0,0.0,91,0.00,,,0.00,dv,2013-08-06 12:20:00,
2013-08-06 08:25:00,72.6,70.4,29.98,West,267,0.0,0.0,91,0.00,,,0.00,dv,2013-08-06 12:25:00,
2013-08-06 08:30:00,72.6,70.4,29.98,West,268,0.0,0.0,91,0.00,,,0.00,dv,2013-08-06 12:30:00,
2013-08-06 08:35:00,72.6,70.2,29.98,West,267,0.0,0.0,90,0.00,,,0.00,dv,2013-08-06 12:35:00,
2013-08-06 08:40:00,72.6,70.2,29.98,West,267,0.0,0.0,90,0.00,,,0.00,dv,2013-08-06 12:40:00,
2013-08-06 08:45:00,72.6,69.9,29.99,West,268,0.0,0.0,89,0.00,,,0.00,dv,2013-08-06 12:45:00,
2013-08-06 08:50:00,72.7,70.3,29.99,West,268,0.0,0.0,90,0.00,,,0.00,dv,2013-08-06 12:50:00,
2013-08-06 08:55:00,72.9,70.2,29.98,West,268,0.0,0.0,89,0.00,,,0.00,dv,2013-08-06 12:55:00,
2013-08-06 09:00:00,72.9,70.2,29.99,West,267,0.0,0.0,89,0.00,,,0.00,dv,2013-08-06 13:00:00,
2013-08-06 09:05:00,72.9,70.0,29.99,West,268,0.0,0.0,88,0.00,,,0.00,dv,2013-08-06 13:05:00,
2013-08-06 09:10:00,73.0,70.1,29.98,West,268,0.0,0.0,88,0.00,,,0.00,dv,2013-08-06 13:10:00,
2013-08-06 09:15:00,73.0,69.8,29.98,West,268,0.0,0.0,87,0.00,,,0.00,dv,2013-08-06 13:15:00,
2013-08-06 09:20:00,73.1,69.6,29.99,West,268,0.0,0.0,86,0.00,,,0.00,dv,2013-08-06 13:20:00,
2013-08-06 09:25:00,73.3,69.6,29.99,West,268,0.0,0.0,85,0.00,,,0.00,dv,2013-08-06 13:25:00,
2013-08-06 09:30:00,73.4,69.4,29.99,West,267,0.0,0.0,84,0.00,,,0.00,dv,2013-08-06 13:30:00,
2013-08-06 09:35:00,73.4,68.8,29.99,West,268,0.0,0.0,82,0.00,,,0.00,dv,2013-08-06 13:35:00,
2013-08-06 09:40:00,73.6,69.0,29.99,West,268,0.0,0.0,82,0.00,,,0.00,dv,2013-08-06 13:40:00,
2013-08-06 09:45:00,73.7,69.4,29.99,West,268,0.0,0.0,83,0.00,,,0.00,dv,2013-08-06 13:45:00,
2013-08-06 09:50:00,73.9,69.3,29.99,West,267,0.0,0.0,82,0.00,,,0.00,dv,2013-08-06 13:50:00,
2013-08-06 09:55:00,74.1,69.5,29.99,West,267,0.0,0.0,82,0.00,,,0.00,dv,2013-08-06 13:55:00,
2013-08-06 10:00:00,74.3,70.3,30.00,West,267,0.0,0.0,84,0.00,,,0.00,dv,2013-08-06 14:00:00,
2013-08-06 10:05:00,74.5,69.0,29.99,West,267,0.0,0.0,79,0.00,,,0.00,dv,2013-08-06 14:05:00,
2013-08-06 10:10:00,74.8,69.0,30.00,West,267,0.0,0.0,78,0.00,,,0.00,dv,2013-08-06 14:10:00,
2013-08-06 10:15:00,75.2,69.7,30.00,West,268,0.0,0.0,79,0.00,,,0.00,dv,2013-08-06 14:15:00,
2013-08-06 10:20:00,75.4,69.6,30.00,West,267,1.6,1.6,78,0.00,,,0.00,dv,2013-08-06 14:20:00,
2013-08-06 10:25:00,75.6,69.8,30.00,West,268,0.0,0.0,78,0.00,,,0.00,dv,2013-08-06 14:25:00,
2013-08-06 10:30:00,75.8,70.0,30.00,West,268,0.0,0.0,78,0.00,,,0.00,dv,2013-08-06 14:30:00,
2013-08-06 10:35:00,76.1,70.3,30.00,West,268,1.6,1.6,78,0.00,,,0.00,dv,2013-08-06 14:35:00,
2013-08-06 10:40:00,76.3,70.2,30.00,West,267,1.6,1.6,77,0.00,,,0.00,dv,2013-08-06 14:40:00,
2013-08-06 10:45:00,76.5,70.1,30.00,West,267,0.0,0.0,76,0.00,,,0.00,dv,2013-08-06 14:45:00,
2013-08-06 10:50:00,76.7,70.9,30.00,West,268,0.0,0.0,78,0.00,,,0.00,dv,2013-08-06 14:50:00,
2013-08-06 10:55:00,77.0,70.9,30.00,West,268,4.8,4.8,77,0.00,,,0.00,dv,2013-08-06 14:55:00,
2013-08-06 11:00:00,77.1,70.4,29.99,West,267,0.0,0.0,75,0.00,,,0.00,dv,2013-08-06 15:00:00,
2013-08-06 11:05:00,77.3,70.5,30.00,West,268,0.0,0.0,75,0.00,,,0.00,dv,2013-08-06 15:05:00,
2013-08-06 11:10:00,77.5,70.7,30.00,West,267,0.0,0.0,75,0.00,,,0.00,dv,2013-08-06 15:10:00,
2013-08-06 11:15:00,77.8,71.0,30.00,West,268,1.6,1.6,75,0.01,,,0.01,dv,2013-08-06 15:15:00,
2013-08-06 11:20:00,78.0,70.6,29.99,NW,309,3.2,3.2,73,0.00,,,0.00,dv,2013-08-06 15:20:00,
2013-08-06 11:25:00,78.3,70.9,29.99,NW,309,0.0,0.0,73,0.00,,,0.00,dv,2013-08-06 15:25:00,
2013-08-06 11:30:00,78.6,71.2,30.00,NW,309,0.0,0.0,73,0.00,,,0.00,dv,2013-08-06 15:30:00,
2013-08-06 11:35:00,78.9,71.1,30.00,NW,315,0.0,0.0,72,0.00,,,0.00,dv,2013-08-06 15:35:00,
2013-08-06 11:40:00,79.1,71.6,30.00,NW,318,1.6,1.6,73,0.00,,,0.00,dv,2013-08-06 15:40:00,
2013-08-06 11:45:00,79.3,71.2,30.00,NW,318,1.6,1.6,71,0.00,,,0.00,dv,2013-08-06 15:45:00,
2013-08-06 11:50:00,79.6,71.2,30.00,NW,320,0.0,0.0,70,0.00,,,0.00,dv,2013-08-06 15:50:00,
2013-08-06 11:55:00,79.7,70.2,30.00,NW,320,1.6,1.6,67,0.00,,,0.00,dv,2013-08-06 15:55:00,
2013-08-06 12:00:00,79.9,70.4,30.00,West,268,4.8,4.8,67,0.00,,,0.00,dv,2013-08-06 16:00:00,
2013-08-06 12:05:00,80.2,70.7,29.99,West,267,3.2,3.2,67,0.00,,,0.00,dv,2013-08-06 16:05:00,
2013-08-06 12:10:00,80.5,71.0,29.99,West,261,9.7,9.7,67,0.00,,,0.00,dv,2013-08-06 16:10:00,
2013-08-06 12:15:00,80.7,71.2,30.00,West,267,3.2,3.2,67,0.00,,,0.00,dv,2013-08-06 16:15:00,
2013-08-06 12:20:00,80.8,70.9,30.00,West,267,1.6,1.6,66,0.00,,,0.00,dv,2013-08-06 16:20:00,
2013-08-06 12:25:00,80.8,71.3,29.99,West,267,0.0,0.0,67,0.00,,,0.00,dv,2013-08-06 16:25:00,
2013-08-06 12:30:00,80.8,71.3,29.99,West,267,1.6,1.6,67,0.00,,,0.00,dv,2013-08-06 16:30:00,
2013-08-06 12:35:00,80.9,71.7,29.99,West,267,0.0,0.0,68,0.00,,,0.00,dv,2013-08-06 16:35:00,
2013-08-06 12:40:00,81.0,72.1,29.99,WNW,286,0.0,0.0,69,0.00,,,0.00,dv,2013-08-06 16:40:00,
2013-08-06 12:45:00,81.0,71.8,30.00,WNW,286,1.6,1.6,68,0.00,,,0.00,dv,2013-08-06 16:45:00,
2013-08-06 12:50:00,81.2,72.3,29.99,WNW,286,0.0,0.0,69,0.00,,,0.00,dv,2013-08-06 16:50:00,
2013-08-06 12:55:00,81.3,71.4,30.00,WNW,292,3.2,3.2,66,0.00,,,0.00,dv,2013-08-06 16:55:00,
2013-08-06 13:00:00,81.4,71.8,30.00,WNW,296,3.2,3.2,67,0.00,,,0.00,dv,2013-08-06 17:00:00,
2013-08-06 13:05:00,81.4,71.5,30.00,WNW,296,1.6,1.6,66,0.00,,,0.00,dv,2013-08-06 17:05:00,
2013-08-06 13:10:00,81.5,71.2,29.99,WNW,296,1.6,1.6,65,0.00,,,0.00,dv,2013-08-06 17:10:00,
2013-08-06 13:15:00,81.6,71.7,29.99,WNW,296,0.0,0.0,66,0.00,,,0.00,dv,2013-08-06 17:15:00,
2013-08-06 13:20:00,81.6,71.0,29.99,WNW,296,1.6,1.6,64,0.00,,,0.00,dv,2013-08-06 17:20:00,
2013-08-06 13:25:00,81.9,71.6,29.99,WNW,296,1.6,1.6,65,0.00,,,0.00,dv,2013-08-06 17:25:00,
2013-08-06 13:30:00,82.1,71.8,29.99,WNW,296,0.0,0.0,65,0.00,,,0.00,dv,2013-08-06 17:30:00,
2013-08-06 13:35:00,82.2,72.2,29.98,WNW,296,0.0,0.0,66,0.00,,,0.00,dv,2013-08-06 17:35:00,
2013-08-06 13:40:00,82.4,72.4,29.98,WNW,296,0.0,0.0,66,0.00,,,0.00,dv,2013-08-06 17:40:00,
2013-08-06 13:45:00,82.4,72.1,29.98,WNW,296,0.0,0.0,65,0.00,,,0.00,dv,2013-08-06 17:45:00,
2013-08-06 13:50:00,82.4,72.1,29.99,WNW,296,1.6,1.6,65,0.00,,,0.00,dv,2013-08-06 17:50:00,
2013-08-06 13:55:00,82.5,72.2,29.99,WNW,296,0.0,0.0,65,0.00,,,0.00,dv,2013-08-06 17:55:00,
2013-08-06 14:00:00,82.8,72.4,29.98,WNW,296,0.0,0.0,65,0.00,,,0.00,dv,2013-08-06 18:00:00,
2013-08-06 14:05:00,82.9,72.5,29.99,WNW,296,3.2,3.2,65,0.00,,,0.00,dv,2013-08-06 18:05:00,
2013-08-06 14:10:00,83.0,72.3,29.98,NNW,328,3.2,3.2,64,0.00,,,0.00,dv,2013-08-06 18:10:00,
2013-08-06 14:15:00,83.1,72.0,29.99,NNW,328,6.4,6.4,63,0.00,,,0.00,dv,2013-08-06 18:15:00,
2013-08-06 14:20:00,83.1,72.7,29.98,NNW,328,0.0,0.0,65,0.00,,,0.00,dv,2013-08-06 18:20:00,
2013-08-06 14:30:00,83.0,71.9,29.98,NNW,328,3.2,3.2,63,0.00,,,0.00,dv,2013-08-06 18:30:00,
2013-08-06 14:35:00,82.8,72.1,29.98,NNW,328,0.0,0.0,64,0.00,,,0.00,dv,2013-08-06 18:35:00,
2013-08-06 14:40:00,82.7,73.1,29.98,NNW,328,0.0,0.0,67,0.00,,,0.00,dv,2013-08-06 18:40:00,
2013-08-06 14:45:00,82.5,72.9,29.98,NNW,328,1.6,1.6,67,0.00,,,0.00,dv,2013-08-06 18:45:00,
2013-08-06 14:50:00,82.4,73.1,29.97,NNW,328,0.0,0.0,68,0.00,,,0.00,dv,2013-08-06 18:50:00,
2013-08-06 15:00:00,82.0,72.7,29.97,NNW,328,0.0,0.0,68,0.00,,,0.00,dv,2013-08-06 19:00:00,
2013-08-06 15:05:00,81.8,72.2,29.97,NNW,328,0.0,0.0,67,0.00,,,0.00,dv,2013-08-06 19:05:00,
2013-08-06 15:10:00,81.6,73.0,29.97,NNW,328,0.0,0.0,70,0.00,,,0.00,dv,2013-08-06 19:10:00,
2013-08-06 15:15:00,81.6,72.7,29.97,NNW,328,1.6,1.6,69,0.00,,,0.00,dv,2013-08-06 19:15:00,
2013-08-06 15:20:00,81.7,72.5,29.96,NNW,328,0.0,0.0,68,0.00,,,0.00,dv,2013-08-06 19:20:00,
2013-08-06 15:25:00,81.8,72.2,29.96,NNW,328,0.0,0.0,67,0.00,,,0.00,dv,2013-08-06 19:25:00,
2013-08-06 15:30:00,81.9,72.7,29.96,NNW,328,0.0,0.0,68,0.00,,,0.00,dv,2013-08-06 19:30:00,
2013-08-06 15:35:00,82.0,72.7,29.96,NNW,328,0.0,0.0,68,0.00,,,0.00,dv,2013-08-06 19:35:00,
2013-08-06 15:40:00,82.1,72.5,29.96,NNW,328,0.0,0.0,67,0.00,,,0.00,dv,2013-08-06 19:40:00,
2013-08-06 15:45:00,82.2,72.9,29.95,NNW,328,0.0,0.0,68,0.00,,,0.00,dv,2013-08-06 19:45:00,
2013-08-06 15:50:00,82.3,73.0,29.95,NNW,328,0.0,0.0,68,0.00,,,0.00,dv,2013-08-06 19:50:00,
2013-08-06 15:55:00,82.3,73.0,29.95,NNW,328,0.0,0.0,68,0.00,,,0.00,dv,2013-08-06 19:55:00,
2013-08-06 16:00:00,82.4,73.5,29.95,NNW,328,0.0,0.0,69,0.00,,,0.00,dv,2013-08-06 20:00:00,
2013-08-06 16:05:00,82.4,72.8,29.95,NNW,328,1.6,1.6,67,0.00,,,0.00,dv,2013-08-06 20:05:00,
2013-08-06 16:10:00,82.5,73.6,29.95,NNW,328,0.0,0.0,69,0.00,,,0.00,dv,2013-08-06 20:10:00,
2013-08-06 16:15:00,82.5,73.2,29.95,NNW,328,0.0,0.0,68,0.00,,,0.00,dv,2013-08-06 20:15:00,
2013-08-06 16:20:00,82.5,73.6,29.95,NNW,328,0.0,0.0,69,0.00,,,0.00,dv,2013-08-06 20:20:00,
2013-08-06 16:25:00,82.4,72.8,29.95,NNW,328,0.0,0.0,67,0.00,,,0.00,dv,2013-08-06 20:25:00,
2013-08-06 16:30:00,82.4,73.5,29.95,NNW,328,0.0,0.0,69,0.00,,,0.00,dv,2013-08-06 20:30:00,
2013-08-06 16:35:00,82.3,73.4,29.95,NNW,328,0.0,0.0,69,0.00,,,0.00,dv,2013-08-06 20:35:00,
2013-08-06 16:40:00,82.3,73.0,29.95,NNW,328,3.2,3.2,68,0.00,,,0.00,dv,2013-08-06 20:40:00,
2013-08-06 16:45:00,82.4,72.8,29.95,NNW,328,4.8,4.8,67,0.00,,,0.00,dv,2013-08-06 20:45:00,
2013-08-06 16:50:00,82.4,72.4,29.95,NNW,328,3.2,3.2,66,0.00,,,0.00,dv,2013-08-06 20:50:00,
2013-08-06 16:55:00,82.5,73.6,29.95,NNW,328,0.0,0.0,69,0.00,,,0.00,dv,2013-08-06 20:55:00,
2013-08-06 17:00:00,82.4,73.5,29.95,NNW,328,0.0,0.0,69,0.00,,,0.00,dv,2013-08-06 21:00:00,
2013-08-06 17:05:00,82.4,73.8,29.95,NNW,328,0.0,0.0,70,0.00,,,0.00,dv,2013-08-06 21:05:00,
2013-08-06 17:10:00,82.3,73.0,29.95,NNW,328,1.6,1.6,68,0.00,,,0.00,dv,2013-08-06 21:10:00,
2013-08-06 17:15:00,82.2,72.9,29.95,NNW,328,0.0,0.0,68,0.00,,,0.00,dv,2013-08-06 21:15:00,
2013-08-06 17:20:00,82.2,73.9,29.95,NNW,328,0.0,0.0,71,0.00,,,0.00,dv,2013-08-06 21:20:00,
2013-08-06 17:25:00,82.1,73.9,29.95,NNW,328,0.0,0.0,71,0.00,,,0.00,dv,2013-08-06 21:25:00,
2013-08-06 17:30:00,82.1,73.5,29.95,NNW,328,0.0,0.0,70,0.00,,,0.00,dv,2013-08-06 21:30:00,
2013-08-06 17:35:00,82.1,73.5,29.95,NNW,328,0.0,0.0,70,0.00,,,0.00,dv,2013-08-06 21:35:00,
2013-08-06 17:40:00,81.9,73.7,29.96,NNW,328,0.0,0.0,71,0.00,,,0.00,dv,2013-08-06 21:40:00,
2013-08-06 17:45:00,81.9,74.0,29.95,NNW,328,0.0,0.0,72,0.00,,,0.00,dv,2013-08-06 21:45:00,
2013-08-06 17:50:00,81.8,74.2,29.96,NNW,328,0.0,0.0,73,0.00,,,0.00,dv,2013-08-06 21:50:00,
2013-08-06 17:55:00,81.7,74.1,29.96,NNW,328,0.0,0.0,73,0.00,,,0.00,dv,2013-08-06 21:55:00,
2013-08-06 18:00:00,81.5,73.9,29.96,NNW,328,0.0,0.0,73,0.00,,,0.00,dv,2013-08-06 22:00:00,
2013-08-06 18:05:00,81.4,74.2,29.96,NNW,328,0.0,0.0,74,0.00,,,0.00,dv,2013-08-06 22:05:00,
2013-08-06 18:10:00,81.3,74.4,29.95,NNW,328,0.0,0.0,75,0.00,,,0.00,dv,2013-08-06 22:10:00,
2013-08-06 18:15:00,81.2,74.3,29.96,NNW,328,0.0,0.0,75,0.00,,,0.00,dv,2013-08-06 22:15:00,
2013-08-06 18:20:00,81.0,74.1,29.96,NNW,328,0.0,0.0,75,0.00,,,0.00,dv,2013-08-06 22:20:00,
2013-08-06 18:25:00,80.9,74.0,29.96,NNW,328,0.0,0.0,75,0.00,,,0.00,dv,2013-08-06 22:25:00,
2013-08-06 18:30:00,80.9,74.3,29.95,NNW,328,0.0,0.0,76,0.00,,,0.00,dv,2013-08-06 22:30:00,
2013-08-06 18:35:00,80.8,74.2,29.95,NNW,328,0.0,0.0,76,0.00,,,0.00,dv,2013-08-06 22:35:00,
2013-08-06 18:40:00,80.8,74.2,29.95,NNW,328,0.0,0.0,76,0.00,,,0.00,dv,2013-08-06 22:40:00,
2013-08-06 18:45:00,80.7,74.4,29.95,NNW,328,0.0,0.0,77,0.00,,,0.00,dv,2013-08-06 22:45:00,
2013-08-06 18:50:00,80.7,74.1,29.95,NNW,328,0.0,0.0,76,0.00,,,0.00,dv,2013-08-06 22:50:00,
2013-08-06 18:55:00,80.6,74.3,29.94,NNW,328,0.0,0.0,77,0.00,,,0.00,dv,2013-08-06 22:55:00,
2013-08-06 19:00:00,80.5,74.5,29.94,NNW,328,0.0,0.0,78,0.00,,,0.00,dv,2013-08-06 23:00:00,
2013-08-06 19:05:00,80.4,74.4,29.94,NNW,328,0.0,0.0,78,0.00,,,0.00,dv,2013-08-06 23:05:00,
2013-08-06 19:15:00,80.1,74.5,29.95,NNW,328,0.0,0.0,79,0.00,,,0.00,dv,2013-08-06 23:15:00,
2013-08-06 19:20:00,80.1,74.5,29.95,NNW,328,0.0,0.0,79,0.00,,,0.00,dv,2013-08-06 23:20:00,
2013-08-06 19:25:00,79.9,74.3,29.96,NNW,328,0.0,0.0,79,0.00,,,0.00,dv,2013-08-06 23:25:00,
2013-08-06 19:30:00,79.8,74.5,29.96,NNW,328,0.0,0.0,80,0.00,,,0.00,dv,2013-08-06 23:30:00,
2013-08-06 19:35:00,79.5,74.5,29.96,NNW,328,0.0,0.0,81,0.00,,,0.00,dv,2013-08-06 23:35:00,
2013-08-06 19:40:00,79.4,74.4,29.96,NNW,328,0.0,0.0,81,0.00,,,0.00,dv,2013-08-06 23:40:00,
2013-08-06 19:45:00,79.3,74.3,29.96,NNW,328,0.0,0.0,81,0.00,,,0.00,dv,2013-08-06 23:45:00,
2013-08-06 19:50:00,79.2,74.2,29.96,NNW,328,0.0,0.0,81,0.00,,,0.00,dv,2013-08-06 23:50:00,
2013-08-06 19:55:00,78.9,73.9,29.96,NNW,328,0.0,0.0,81,0.00,,,0.00,dv,2013-08-06 23:55:00,
2013-08-06 20:00:00,78.7,74.0,29.96,NNW,328,0.0,0.0,82,0.00,,,0.00,dv,2013-08-07 00:00:00,
2013-08-06 20:05:00,78.6,74.2,29.97,NNW,328,0.0,0.0,83,0.00,,,0.00,dv,2013-08-07 00:05:00,
2013-08-06 20:10:00,78.6,74.2,29.96,NNW,328,0.0,0.0,83,0.00,,,0.00,dv,2013-08-07 00:10:00,
2013-08-06 20:20:00,78.3,74.2,29.96,NNW,328,0.0,0.0,84,0.00,,,0.00,dv,2013-08-07 00:20:00,
2013-08-06 20:25:00,78.0,73.9,29.97,NNW,328,0.0,0.0,84,0.00,,,0.00,dv,2013-08-07 00:25:00,
2013-08-06 20:30:00,77.9,73.8,29.97,NNW,328,0.0,0.0,84,0.00,,,0.00,dv,2013-08-07 00:30:00,
2013-08-06 20:35:00,77.7,73.6,29.96,NNW,328,0.0,0.0,84,0.00,,,0.00,dv,2013-08-07 00:35:00,
2013-08-06 20:40:00,77.4,73.6,29.96,NNW,328,0.0,0.0,85,0.00,,,0.00,dv,2013-08-07 00:40:00,
2013-08-06 20:45:00,77.4,73.6,29.97,NNW,328,0.0,0.0,85,0.00,,,0.00,dv,2013-08-07 00:45:00,
2013-08-06 20:50:00,77.2,73.6,29.96,NNW,328,0.0,0.0,86,0.00,,,0.00,dv,2013-08-07 00:50:00,
2013-08-06 20:55:00,77.1,73.3,29.96,NNW,328,0.0,0.0,85,0.00,,,0.00,dv,2013-08-07 00:55:00,
2013-08-06 21:00:00,77.0,73.4,29.97,NNW,328,0.0,0.0,86,0.00,,,0.00,dv,2013-08-07 01:00:00,
2013-08-06 21:05:00,76.9,73.3,29.96,NNW,328,0.0,0.0,86,0.00,,,0.00,dv,2013-08-07 01:05:00,
2013-08-06 21:10:00,76.8,73.2,29.96,NNW,328,0.0,0.0,86,0.00,,,0.00,dv,2013-08-07 01:10:00,
2013-08-06 21:20:00,76.7,73.4,29.96,NNW,328,0.0,0.0,87,0.00,,,0.00,dv,2013-08-07 01:20:00,
2013-08-06 21:25:00,76.6,73.3,29.96,NNW,328,0.0,0.0,87,0.00,,,0.00,dv,2013-08-07 01:25:00,
2013-08-06 21:30:00,76.6,73.0,29.96,NNW,328,0.0,0.0,86,0.00,,,0.00,dv,2013-08-07 01:30:00,
2013-08-06 21:40:00,76.4,73.1,29.96,NNW,328,0.0,0.0,87,0.00,,,0.00,dv,2013-08-07 01:40:00,
2013-08-06 21:45:00,76.5,73.2,29.97,NNW,328,0.0,0.0,87,0.00,,,0.00,dv,2013-08-07 01:45:00,
2013-08-06 21:55:00,76.3,73.0,29.97,NNW,328,0.0,0.0,87,0.00,,,0.00,dv,2013-08-07 01:55:00,
2013-08-06 22:00:00,76.2,72.9,29.97,NNW,328,0.0,0.0,87,0.00,,,0.00,dv,2013-08-07 02:00:00,
2013-08-06 22:05:00,76.2,72.9,29.97,NNW,328,0.0,0.0,87,0.00,,,0.00,dv,2013-08-07 02:05:00,
2013-08-06 22:10:00,76.2,73.2,29.97,NNW,328,0.0,0.0,88,0.00,,,0.00,dv,2013-08-07 02:10:00,
2013-08-06 22:15:00,76.2,73.2,29.97,NNW,328,0.0,0.0,88,0.00,,,0.00,dv,2013-08-07 02:15:00,
2013-08-06 22:20:00,76.2,73.2,29.97,NNW,328,0.0,0.0,88,0.00,,,0.00,dv,2013-08-07 02:20:00,
2013-08-06 22:25:00,76.1,73.1,29.97,NNW,328,0.0,0.0,88,0.00,,,0.00,dv,2013-08-07 02:25:00,
2013-08-06 22:30:00,76.1,73.1,29.98,NNW,328,0.0,0.0,88,0.00,,,0.00,dv,2013-08-07 02:30:00,
2013-08-06 22:35:00,76.1,73.1,29.98,NNW,328,0.0,0.0,88,0.00,,,0.00,dv,2013-08-07 02:35:00,
2013-08-06 22:40:00,76.1,73.4,29.98,NNW,328,0.0,0.0,89,0.00,,,0.00,dv,2013-08-07 02:40:00,
2013-08-06 22:45:00,76.1,73.4,29.99,NNW,328,0.0,0.0,89,0.00,,,0.00,dv,2013-08-07 02:45:00,
2013-08-06 22:50:00,76.0,73.3,29.99,NNW,328,0.0,0.0,89,0.00,,,0.00,dv,2013-08-07 02:50:00,
2013-08-06 22:55:00,75.9,73.2,29.99,NNW,328,0.0,0.0,89,0.00,,,0.00,dv,2013-08-07 02:55:00,
2013-08-06 23:00:00,75.9,73.2,30.00,NNW,328,0.0,0.0,89,0.00,,,0.00,dv,2013-08-07 03:00:00,
2013-08-06 23:05:00,75.8,73.1,30.00,NNW,328,0.0,0.0,89,0.00,,,0.00,dv,2013-08-07 03:05:00,
2013-08-06 23:10:00,75.8,73.3,30.00,NNW,328,0.0,0.0,90,0.00,,,0.00,dv,2013-08-07 03:10:00,
2013-08-06 23:15:00,75.8,73.3,30.00,NNW,328,0.0,0.0,90,0.00,,,0.00,dv,2013-08-07 03:15:00,
2013-08-06 23:20:00,75.8,73.3,30.00,NNW,328,0.0,0.0,90,0.00,,,0.00,dv,2013-08-07 03:20:00,
2013-08-06 23:25:00,75.8,73.3,30.00,NNW,328,0.0,0.0,90,0.00,,,0.00,dv,2013-08-07 03:25:00,
2013-08-06 23:30:00,75.7,73.2,30.00,NNW,328,1.6,1.6,90,0.00,,,0.00,dv,2013-08-07 03:30:00,
2013-08-06 23:35:00,75.6,73.1,30.00,NNW,328,1.6,1.6,90,0.00,,,0.00,dv,2013-08-07 03:35:00,
2013-08-06 23:40:00,75.4,72.7,29.99,NNW,328,1.6,1.6,89,0.00,,,0.00,dv,2013-08-07 03:40:00,
2013-08-06 23:45:00,75.2,72.2,29.99,NNW,328,0.0,0.0,88,0.00,,,0.00,dv,2013-08-07 03:45:00,
2013-08-06 23:50:00,75.0,72.3,29.99,North,0,1.6,1.6,89,0.00,,,0.00,dv,2013-08-07 03:50:00,
2013-08-06 23:55:00,74.9,72.2,29.99,North,0,3.2,3.2,89,0.00,,,0.00,dv,2013-08-07 03:55:00,